Main page
METAR-TAF:

METAR-TAF

Airports :

Ventspils, Latvia

Ventspils International Airport

latitude: 57-21-28N, longitude: 021-32-39E, elevation: 6 m

Current weather observation

The report was made 12 minutes ago, at 16:20 UTC
Wind 9 kt from the Northeast
Temperature -4°C
Humidity 100%
Pressure 1022 hPa
Visibility 10 km or more
Scattered clouds at a height of 1200 ft
Broken clouds at a height of 2300 ft
Overcast at a height of 3000 ft

METAR: EVVA 231620Z AUTO 04009KT 9999 SCT012 BKN023 OVC030 M04/M04 Q1022

Time: 18:32 (16:32 UTC)


TAF: missing

Weather observations and forecasts of more than 4000 airports (METAR and TAF reports).

The available stations are represented by yellow and red dots on the map.

Hover mouse over dot to see the name of the station.

Then click to see weather observations and forecasts.

To change the map : click on the green buttons with a black cross to zoom in, on the green button with a dash to zoom out, or on the green arrows for adjacent maps.


METAR-TAF: